createdAt,value
2022-09-05T00:01:44.553Z,18.82
2022-09-05T00:04:24.215Z,18.79
2022-09-05T00:06:32.428Z,18.76
2022-09-05T00:08:51.558Z,18.75
2022-09-05T00:11:43.043Z,18.71
2022-09-05T00:13:46.968Z,18.69
2022-09-05T00:15:58.184Z,18.67
2022-09-05T00:21:38.080Z,18.65
2022-09-05T00:24:24.865Z,18.61
2022-09-05T00:24:31.147Z,18.62
2022-09-05T00:26:03.796Z,18.57
2022-09-05T00:28:35.731Z,18.55
2022-09-05T00:31:51.505Z,18.52
2022-09-05T00:33:27.472Z,18.48
2022-09-05T00:35:37.300Z,18.47
2022-09-05T00:37:42.840Z,18.45
2022-09-05T00:39:47.626Z,18.43
2022-09-05T00:42:09.151Z,18.41
2022-09-05T00:44:13.767Z,18.39
2022-09-05T00:46:22.359Z,18.35
2022-09-05T00:48:26.798Z,18.29
2022-09-05T00:50:37.820Z,18.32
2022-09-05T00:53:07.926Z,18.29
2022-09-05T00:55:28.217Z,18.29
2022-09-05T00:57:54.296Z,18.28
2022-09-05T01:00:17.634Z,18.25
2022-09-05T01:02:51.773Z,18.25
2022-09-05T01:05:02.002Z,18.26
2022-09-05T01:07:28.695Z,18.25
2022-09-05T01:09:46.653Z,18.22
2022-09-05T01:12:06.391Z,18.22
2022-09-05T01:14:23.118Z,18.20
2022-09-05T01:16:36.050Z,18.20
2022-09-05T01:19:06.050Z,18.18
2022-09-05T01:21:18.529Z,18.16
2022-09-05T01:23:44.392Z,18.14
2022-09-05T01:26:07.089Z,18.14
2022-09-05T01:29:15.787Z,18.12
2022-09-05T01:31:00.956Z,18.12
2022-09-05T01:33:48.600Z,18.07
2022-09-05T01:36:17.451Z,18.07
2022-09-05T01:38:29.231Z,18.07
2022-09-05T01:41:18.450Z,18.06
2022-09-05T01:43:41.394Z,18.07
2022-09-05T01:45:48.055Z,18.07
2022-09-05T01:48:04.916Z,18.03
2022-09-05T01:50:48.222Z,18.02
2022-09-05T01:53:07.621Z,18.01
2022-09-05T01:56:04.281Z,17.99
2022-09-05T01:58:32.934Z,18.01
2022-09-05T02:00:53.431Z,18.01
2022-09-05T02:03:07.236Z,18.00
2022-09-05T02:05:27.499Z,17.99
2022-09-05T02:08:14.111Z,17.97
2022-09-05T02:10:40.049Z,17.98
2022-09-05T02:13:03.149Z,17.98
2022-09-05T02:15:14.872Z,17.95
2022-09-05T02:17:49.705Z,17.95
2022-09-05T02:20:08.120Z,17.95
2022-09-05T02:22:18.382Z,17.95
2022-09-05T02:24:34.936Z,17.94
2022-09-05T02:26:47.734Z,17.94
2022-09-05T02:29:30.066Z,17.91
2022-09-05T02:31:43.603Z,17.91
2022-09-05T02:33:51.236Z,17.92
2022-09-05T02:36:13.766Z,17.90
2022-09-05T02:45:02.265Z,17.88
2022-09-05T02:45:12.354Z,17.87
2022-09-05T02:45:18.588Z,17.87
2022-09-05T02:46:30.496Z,17.86
2022-09-05T02:48:32.092Z,17.85
2022-09-05T02:53:59.272Z,17.87
2022-09-05T02:57:33.718Z,17.83
2022-09-05T02:57:38.986Z,17.84
2022-09-05T02:59:07.979Z,17.81
2022-09-05T03:01:24.229Z,17.79
2022-09-05T03:03:41.790Z,17.81
2022-09-05T03:06:00.919Z,17.79
2022-09-05T03:08:30.184Z,17.78
2022-09-05T03:10:56.734Z,17.76
2022-09-05T03:13:19.969Z,17.76
2022-09-05T03:15:39.653Z,17.76
2022-09-05T03:17:51.056Z,17.78
2022-09-05T03:20:26.592Z,17.78
2022-09-05T03:22:36.175Z,17.76
2022-09-05T03:25:17.550Z,17.74
2022-09-05T03:27:29.300Z,17.77
2022-09-05T03:29:42.911Z,17.78
2022-09-05T03:31:58.840Z,17.78
2022-09-05T03:34:19.845Z,17.75
2022-09-05T03:36:27.186Z,17.74
2022-09-05T03:39:16.170Z,17.70
2022-09-05T03:41:42.050Z,17.64
2022-09-05T03:44:00.667Z,17.63
2022-09-05T03:46:08.245Z,17.63
2022-09-05T03:48:23.145Z,17.58
2022-09-05T03:57:08.214Z,17.56
2022-09-05T03:57:25.709Z,17.47
2022-09-05T03:57:26.006Z,17.53
2022-09-05T03:58:59.866Z,17.47
2022-09-05T04:02:03.213Z,17.48
2022-09-05T04:08:14.987Z,17.45
2022-09-05T04:08:17.181Z,17.46
2022-09-05T04:08:51.341Z,17.45
2022-09-05T04:11:04.338Z,17.44
2022-09-05T04:13:25.118Z,17.39
2022-09-05T04:15:34.783Z,17.38
2022-09-05T04:17:43.755Z,17.35
2022-09-05T04:19:52.382Z,17.36
2022-09-05T04:22:13.686Z,17.30
2022-09-05T04:24:28.444Z,17.35
2022-09-05T04:26:51.257Z,17.35
2022-09-05T04:29:14.980Z,17.35
2022-09-05T04:31:22.412Z,17.36
2022-09-05T04:33:36.031Z,17.36
2022-09-05T04:35:53.111Z,17.35
2022-09-05T04:38:10.973Z,17.34
2022-09-05T04:40:49.403Z,17.32
2022-09-05T04:42:51.825Z,17.35
2022-09-05T04:45:00.284Z,17.37
2022-09-05T04:47:18.364Z,17.38
2022-09-05T04:49:32.914Z,17.33
2022-09-05T04:51:59.956Z,17.35
2022-09-05T04:54:04.659Z,17.39
2022-09-05T04:56:15.995Z,17.39
2022-09-05T05:00:36.792Z,17.40
2022-09-05T05:04:02.334Z,17.40
2022-09-05T05:06:09.940Z,17.41
2022-09-05T05:06:31.630Z,17.44
2022-09-05T05:08:43.145Z,17.43
2022-09-05T05:14:36.682Z,17.45
2022-09-05T05:17:59.037Z,17.47
2022-09-05T05:18:14.520Z,17.46
2022-09-05T05:18:54.966Z,17.46
2022-09-05T05:21:28.154Z,17.43
2022-09-05T05:23:37.658Z,17.43
2022-09-05T05:26:00.869Z,17.44
2022-09-05T05:28:24.391Z,17.46
2022-09-05T05:30:31.673Z,17.48
2022-09-05T05:32:46.458Z,17.48
2022-09-05T05:35:00.979Z,17.47
2022-09-05T05:37:15.856Z,17.49
2022-09-05T05:39:28.684Z,17.52
2022-09-05T05:41:38.845Z,17.55
2022-09-05T05:43:46.293Z,17.57
2022-09-05T05:45:57.084Z,17.59
2022-09-05T05:48:24.931Z,17.66
2022-09-05T05:50:38.061Z,17.65
2022-09-05T05:52:58.626Z,17.66
2022-09-05T05:55:54.096Z,17.69
2022-09-05T05:58:13.557Z,17.73
2022-09-05T06:00:27.392Z,17.74
2022-09-05T06:03:09.843Z,17.76
2022-09-05T06:05:22.354Z,17.82
2022-09-05T06:07:33.365Z,17.81
2022-09-05T06:14:48.389Z,17.85
2022-09-05T06:14:58.874Z,17.85
2022-09-05T06:16:06.836Z,17.88
2022-09-05T06:18:31.059Z,17.93
2022-09-05T06:21:38.962Z,17.95
2022-09-05T06:23:39.896Z,17.98
2022-09-05T06:26:00.111Z,18.00
2022-09-05T06:28:19.214Z,18.10
2022-09-05T06:30:23.538Z,18.20
2022-09-05T06:32:58.144Z,18.26
2022-09-05T06:35:08.737Z,18.31
2022-09-05T06:37:37.022Z,18.32
2022-09-05T06:39:56.985Z,18.34
2022-09-05T06:42:06.757Z,18.39
2022-09-05T06:44:19.808Z,18.46
2022-09-05T06:46:50.635Z,18.54
2022-09-05T06:49:30.008Z,18.62
2022-09-05T06:51:44.987Z,18.70
2022-09-05T06:53:56.958Z,18.77
2022-09-05T06:56:25.862Z,18.82
2022-09-05T06:58:46.720Z,18.88
2022-09-05T07:00:55.114Z,18.93
2022-09-05T07:03:37.216Z,19.03
2022-09-05T07:06:01.923Z,19.18
2022-09-05T07:08:35.900Z,19.32
2022-09-05T07:10:43.722Z,19.42
2022-09-05T07:12:50.749Z,19.54
2022-09-05T07:15:21.320Z,19.62
2022-09-05T07:17:48.267Z,19.76
2022-09-05T07:20:05.523Z,19.87
2022-09-05T07:22:18.467Z,19.99
2022-09-05T07:24:53.986Z,20.03
2022-09-05T07:27:00.085Z,20.03
2022-09-05T07:29:07.305Z,20.02
2022-09-05T07:31:27.644Z,20.05
2022-09-05T07:33:40.733Z,20.06
2022-09-05T07:35:43.439Z,20.07
2022-09-05T07:37:49.993Z,20.06
2022-09-05T07:39:56.925Z,20.02
2022-09-05T07:42:05.796Z,20.00
2022-09-05T07:44:23.289Z,19.98
2022-09-05T07:46:33.390Z,19.96
2022-09-05T07:48:40.555Z,19.93
2022-09-05T07:56:49.429Z,19.87
2022-09-05T07:56:49.703Z,19.89
2022-09-05T07:56:54.103Z,19.89
2022-09-05T07:58:07.704Z,19.88
2022-09-05T08:00:26.567Z,19.88
2022-09-05T08:02:31.163Z,19.92
2022-09-05T08:04:35.804Z,19.99
2022-09-05T08:07:48.078Z,20.07
2022-09-05T08:09:21.897Z,20.17
2022-09-05T08:11:35.125Z,20.28
2022-09-05T08:13:39.915Z,20.38
2022-09-05T08:16:09.777Z,20.46
2022-09-05T08:18:25.864Z,20.53
2022-09-05T08:20:40.624Z,20.58
2022-09-05T08:22:55.073Z,20.65
2022-09-05T08:25:14.005Z,20.75
2022-09-05T08:27:23.916Z,20.85
2022-09-05T08:29:39.021Z,20.95
2022-09-05T08:31:46.966Z,21.06
2022-09-05T08:33:53.143Z,21.15
2022-09-05T08:36:01.668Z,21.26
2022-09-05T08:38:04.387Z,21.37
2022-09-05T08:40:12.771Z,21.43
2022-09-05T08:42:26.098Z,21.42
2022-09-05T08:46:41.609Z,21.46
2022-09-05T08:47:24.263Z,21.61
2022-09-05T08:49:41.330Z,21.74
2022-09-05T08:51:54.270Z,21.81
2022-09-05T08:54:30.661Z,21.90
2022-09-05T08:56:44.401Z,21.98
2022-09-05T08:59:27.948Z,22.04
2022-09-05T09:01:42.434Z,22.07
2022-09-05T09:04:17.011Z,22.07
2022-09-05T09:07:51.478Z,22.06
2022-09-05T09:10:25.603Z,22.11
2022-09-05T09:12:45.945Z,22.15
2022-09-05T09:14:56.433Z,22.20
2022-09-05T09:17:28.691Z,22.25
2022-09-05T09:19:46.322Z,22.30
2022-09-05T09:22:20.702Z,22.35
2022-09-05T09:24:32.539Z,22.42
2022-09-05T09:27:00.008Z,22.49
2022-09-05T09:29:08.135Z,22.55
2022-09-05T09:31:43.663Z,22.61
2022-09-05T09:34:11.038Z,22.68
2022-09-05T09:36:31.761Z,22.75
2022-09-05T09:38:41.712Z,22.81
2022-09-05T09:41:20.635Z,22.91
2022-09-05T09:43:52.823Z,22.98
2022-09-05T09:46:14.247Z,23.08
2022-09-05T09:48:43.658Z,23.15
2022-09-05T09:51:22.823Z,23.22
2022-09-05T09:53:37.494Z,23.28
2022-09-05T09:55:56.501Z,23.36
2022-09-05T09:58:23.240Z,23.46
2022-09-05T10:00:27.485Z,23.55
2022-09-05T10:06:49.590Z,23.66
2022-09-05T10:10:39.642Z,23.73
2022-09-05T10:11:08.802Z,23.83
2022-09-05T10:11:37.648Z,23.94
2022-09-05T10:13:33.617Z,24.04
2022-09-05T10:15:44.319Z,24.10
2022-09-05T10:18:05.705Z,24.19
2022-09-05T10:20:29.794Z,24.29
2022-09-05T10:23:08.378Z,24.39
2022-09-05T10:25:31.597Z,24.51
2022-09-05T10:27:49.753Z,24.54
2022-09-05T10:30:11.239Z,24.63
2022-09-05T10:35:11.369Z,24.70
2022-09-05T10:35:15.101Z,24.86
2022-09-05T10:37:18.827Z,25.03
2022-09-05T10:39:30.143Z,25.17
2022-09-05T10:41:54.026Z,25.26
2022-09-05T10:44:02.908Z,25.46
2022-09-05T10:46:48.935Z,25.60
2022-09-05T10:48:53.405Z,25.77
2022-09-05T10:51:10.490Z,25.90
2022-09-05T10:53:21.353Z,26.09
2022-09-05T10:55:54.583Z,26.34
2022-09-05T10:58:04.965Z,26.47
2022-09-05T11:02:21.647Z,26.64
2022-09-05T11:02:38.602Z,27.07
2022-09-05T11:04:50.621Z,27.59
2022-09-05T11:07:12.184Z,28.01
2022-09-05T11:09:19.543Z,28.19
2022-09-05T11:11:33.921Z,28.32
2022-09-05T11:13:42.230Z,28.57
2022-09-05T11:16:03.643Z,28.61
2022-09-05T11:18:15.445Z,28.63
2022-09-05T11:20:37.201Z,28.77
2022-09-05T11:22:43.038Z,28.90
2022-09-05T11:24:59.977Z,28.79
2022-09-05T11:27:23.526Z,28.80
2022-09-05T11:29:49.293Z,28.86
2022-09-05T11:36:44.386Z,29.29
2022-09-05T11:39:45.767Z,29.20
2022-09-05T11:39:52.305Z,29.50
2022-09-05T11:40:49.276Z,29.93
2022-09-05T11:43:32.522Z,29.90
2022-09-05T11:45:37.048Z,29.69
2022-09-05T11:47:50.616Z,29.76
2022-09-05T11:50:26.086Z,29.77
2022-09-05T11:53:01.446Z,29.84
2022-09-05T11:55:20.867Z,29.58
2022-09-05T11:57:35.083Z,29.35
2022-09-05T12:00:31.923Z,29.38
2022-09-05T12:03:03.679Z,29.36
2022-09-05T12:05:48.965Z,29.25
2022-09-05T12:08:01.802Z,29.08
2022-09-05T12:10:43.527Z,28.99
2022-09-05T12:13:30.285Z,28.99
2022-09-05T12:15:34.244Z,29.01
2022-09-05T12:17:50.951Z,28.96
2022-09-05T12:20:22.357Z,28.89
2022-09-05T12:22:24.273Z,28.80
2022-09-05T12:25:25.023Z,28.73
2022-09-05T12:27:44.514Z,28.62
2022-09-05T12:29:46.905Z,28.61
2022-09-05T12:33:22.005Z,28.54
2022-09-05T12:36:07.915Z,28.37
2022-09-05T12:40:27.630Z,28.22
2022-09-05T12:41:42.465Z,28.18
2022-09-05T12:42:20.745Z,28.21
2022-09-05T12:45:10.022Z,28.09
2022-09-05T12:47:19.491Z,28.03
2022-09-05T12:49:36.200Z,28.02
2022-09-05T12:51:53.817Z,28.04
2022-09-05T12:54:00.836Z,28.01
2022-09-05T12:57:08.897Z,28.02
2022-09-05T13:03:05.982Z,27.98
2022-09-05T13:03:06.815Z,27.94
2022-09-05T13:04:15.961Z,27.91
2022-09-05T13:06:25.617Z,27.91
2022-09-05T13:08:43.949Z,27.88
2022-09-05T13:14:50.516Z,27.82
2022-09-05T13:14:52.638Z,27.82
2022-09-05T13:15:41.572Z,27.84
2022-09-05T13:17:59.142Z,27.81
2022-09-05T13:20:01.756Z,27.84
2022-09-05T13:22:05.276Z,27.87
2022-09-05T13:24:22.095Z,27.90
2022-09-05T13:26:37.403Z,27.91
2022-09-05T13:29:10.182Z,27.92
2022-09-05T13:35:11.024Z,27.92
2022-09-05T13:38:02.438Z,27.87
2022-09-05T13:38:13.187Z,27.80
2022-09-05T13:39:06.891Z,27.79
2022-09-05T13:41:27.848Z,27.79
2022-09-05T13:43:38.224Z,27.74
2022-09-05T13:45:54.346Z,27.71
2022-09-05T13:48:15.293Z,27.71
2022-09-05T13:50:25.848Z,27.73
2022-09-05T13:52:46.582Z,27.74
2022-09-05T13:54:52.027Z,27.73
2022-09-05T13:57:16.299Z,27.69
2022-09-05T13:59:40.884Z,27.63
2022-09-05T14:02:24.932Z,27.57
2022-09-05T14:05:13.543Z,27.52
2022-09-05T14:09:58.413Z,27.56
2022-09-05T14:12:19.529Z,27.58
2022-09-05T14:19:53.592Z,27.57
2022-09-05T14:21:55.135Z,27.56
2022-09-05T14:24:12.478Z,27.57
2022-09-05T14:26:21.359Z,27.57
2022-09-05T14:29:05.055Z,27.61
2022-09-05T14:35:33.307Z,27.64
2022-09-05T14:37:40.949Z,27.61
2022-09-05T14:37:54.601Z,27.61
2022-09-05T14:39:14.231Z,27.56
2022-09-05T14:41:38.199Z,27.59
2022-09-05T14:44:37.877Z,27.54
2022-09-05T14:47:34.699Z,27.56
2022-09-05T14:49:42.030Z,27.54
2022-09-05T14:51:52.620Z,27.50
2022-09-05T14:54:02.117Z,27.50
2022-09-05T14:57:18.954Z,27.48
2022-09-05T15:02:46.362Z,27.47
2022-09-05T15:02:56.514Z,27.46
2022-09-05T15:03:22.690Z,27.46
2022-09-05T15:05:27.706Z,27.47
2022-09-05T15:07:36.418Z,27.47
2022-09-05T15:12:14.944Z,27.45
2022-09-05T15:12:28.088Z,27.44
2022-09-05T15:14:33.097Z,27.42
2022-09-05T15:16:40.318Z,27.40
2022-09-05T15:18:49.374Z,27.40
2022-09-05T15:20:53.500Z,27.38
2022-09-05T15:22:57.433Z,27.39
2022-09-05T15:25:15.016Z,27.43
2022-09-05T15:27:19.014Z,27.39
2022-09-05T15:29:26.914Z,27.40
2022-09-05T15:31:28.383Z,27.38
2022-09-05T15:33:31.412Z,27.37
2022-09-05T15:35:36.750Z,27.36
2022-09-05T15:37:41.028Z,27.38
2022-09-05T15:39:42.528Z,27.38
2022-09-05T15:41:44.330Z,27.38
2022-09-05T15:43:53.934Z,27.34
2022-09-05T15:46:03.447Z,27.33
2022-09-05T15:48:33.914Z,27.32
2022-09-05T15:50:40.962Z,27.30
2022-09-05T15:52:47.340Z,27.29
2022-09-05T15:55:10.559Z,27.30
2022-09-05T15:57:20.236Z,27.31
2022-09-05T15:59:28.178Z,27.34
2022-09-05T16:01:59.650Z,27.33
2022-09-05T16:08:31.388Z,27.33
2022-09-05T16:10:30.494Z,27.34
2022-09-05T16:10:49.542Z,27.31
2022-09-05T16:14:39.423Z,27.25
2022-09-05T16:23:19.794Z,27.21
2022-09-05T16:23:30.084Z,27.22
2022-09-05T16:23:33.322Z,27.20
2022-09-05T16:24:07.156Z,27.17
2022-09-05T16:26:25.857Z,27.15
2022-09-05T16:28:33.663Z,27.13
2022-09-05T16:30:38.128Z,27.11
2022-09-05T16:32:46.541Z,27.09
2022-09-05T16:34:57.566Z,27.07
2022-09-05T16:37:08.769Z,27.05
2022-09-05T16:39:17.033Z,27.03
2022-09-05T16:41:37.026Z,26.98
2022-09-05T16:43:44.002Z,26.97
2022-09-05T16:46:04.599Z,26.89
2022-09-05T16:48:43.567Z,26.85
2022-09-05T16:51:13.416Z,26.82
2022-09-05T16:53:30.844Z,26.78
2022-09-05T16:55:43.237Z,26.74
2022-09-05T16:58:14.576Z,26.70
2022-09-05T17:00:16.253Z,26.64
2022-09-05T17:02:49.526Z,26.58
2022-09-05T17:05:09.399Z,26.55
2022-09-05T17:07:41.952Z,26.50
2022-09-05T17:09:45.201Z,26.45
2022-09-05T17:12:00.517Z,26.39
2022-09-05T17:14:10.885Z,26.36
2022-09-05T17:16:29.291Z,26.27
2022-09-05T17:18:36.513Z,26.23
2022-09-05T17:20:40.850Z,26.21
2022-09-05T17:25:40.071Z,26.15
2022-09-05T17:29:27.606Z,26.05
2022-09-05T17:29:33.610Z,26.11
2022-09-05T17:33:25.113Z,25.88
2022-09-05T17:35:55.335Z,25.87
2022-09-05T17:38:20.665Z,25.80
2022-09-05T17:40:54.830Z,25.70
2022-09-05T17:43:04.668Z,25.66
2022-09-05T17:45:17.814Z,25.59
2022-09-05T17:47:53.707Z,25.56
2022-09-05T17:50:13.974Z,25.53
2022-09-05T17:52:18.790Z,25.49
2022-09-05T17:54:33.565Z,25.39
2022-09-05T17:56:40.169Z,25.37
2022-09-05T17:59:02.279Z,25.31
2022-09-05T18:01:32.472Z,25.23
2022-09-05T18:03:40.491Z,25.19
2022-09-05T18:07:57.949Z,25.10
2022-09-05T18:10:15.107Z,25.04
2022-09-05T18:13:12.985Z,25.01
2022-09-05T18:15:07.555Z,24.97
2022-09-05T18:17:48.743Z,24.85
2022-09-05T18:20:00.148Z,24.83
2022-09-05T18:22:11.295Z,24.79
2022-09-05T18:24:21.301Z,24.73
2022-09-05T18:26:28.429Z,24.74
2022-09-05T18:28:32.010Z,24.70
2022-09-05T18:32:53.796Z,24.56
2022-09-05T18:35:36.984Z,24.51
2022-09-05T18:37:39.430Z,24.47
2022-09-05T18:39:42.025Z,24.42
2022-09-05T18:41:43.733Z,24.40
2022-09-05T18:44:02.216Z,24.38
2022-09-05T18:46:22.475Z,24.30
2022-09-05T18:48:30.691Z,24.29
2022-09-05T18:50:34.871Z,24.17
2022-09-05T18:52:43.222Z,24.17
2022-09-05T18:54:52.114Z,24.07
2022-09-05T18:57:28.358Z,24.08
2022-09-05T18:59:37.309Z,24.03
2022-09-05T19:02:32.147Z,23.97
2022-09-05T19:04:49.397Z,23.91
2022-09-05T19:06:52.391Z,23.91
2022-09-05T19:09:21.251Z,23.87
2022-09-05T19:11:36.605Z,23.83
2022-09-05T19:13:44.560Z,23.79
2022-09-05T19:15:58.745Z,23.78
2022-09-05T19:18:27.460Z,23.71
2022-09-05T19:20:56.593Z,23.64
2022-09-05T19:23:13.176Z,23.61
2022-09-05T19:25:23.288Z,23.53
2022-09-05T19:30:35.914Z,23.50
2022-09-05T19:36:45.840Z,23.49
2022-09-05T19:37:02.246Z,23.42
2022-09-05T19:37:03.449Z,23.35
2022-09-05T19:37:29.222Z,23.24
2022-09-05T19:46:41.614Z,23.23
2022-09-05T19:47:31.321Z,23.21
2022-09-05T19:47:51.105Z,23.10
2022-09-05T19:47:56.351Z,23.11
2022-09-05T19:49:19.581Z,23.08
2022-09-05T19:51:26.772Z,23.04
2022-09-05T19:53:28.590Z,23.00
2022-09-05T19:55:35.753Z,22.98
2022-09-05T19:57:37.556Z,22.93
2022-09-05T19:59:41.857Z,22.90
2022-09-05T20:01:45.009Z,22.81
2022-09-05T20:03:52.251Z,22.79
2022-09-05T20:05:53.837Z,22.76
2022-09-05T20:07:58.229Z,22.71
2022-09-05T20:10:04.014Z,22.67
2022-09-05T20:12:15.981Z,22.59
2022-09-05T20:14:17.593Z,22.57
2022-09-05T20:16:29.424Z,22.53
2022-09-05T20:18:40.647Z,22.52
2022-09-05T20:20:51.777Z,22.48
2022-09-05T20:22:59.213Z,22.46
2022-09-05T20:25:02.728Z,22.45
2022-09-05T20:27:04.940Z,22.39
2022-09-05T20:29:11.288Z,22.36
2022-09-05T20:31:27.696Z,22.31
2022-09-05T20:33:51.722Z,22.27
2022-09-05T20:39:42.367Z,22.21
2022-09-05T20:43:19.941Z,22.19
2022-09-05T20:43:22.631Z,22.14
2022-09-05T20:43:35.368Z,22.10
2022-09-05T20:45:54.475Z,22.05
2022-09-05T20:54:08.618Z,22.03
2022-09-05T20:54:13.487Z,21.91
2022-09-05T20:54:18.049Z,21.98
2022-09-05T20:55:40.278Z,21.87
2022-09-05T20:57:43.730Z,21.86
2022-09-05T20:59:47.253Z,21.86
2022-09-05T21:01:59.727Z,21.82
2022-09-05T21:04:03.319Z,21.78
2022-09-05T21:06:22.150Z,21.81
2022-09-05T21:08:36.241Z,21.78
2022-09-05T21:10:54.948Z,21.76
2022-09-05T21:12:58.769Z,21.76
2022-09-05T21:15:02.991Z,21.71
2022-09-05T21:17:22.631Z,21.68
2022-09-05T21:19:29.082Z,21.64
2022-09-05T21:21:33.581Z,21.65
2022-09-05T21:23:38.889Z,21.60
2022-09-05T21:25:56.789Z,21.51
2022-09-05T21:28:05.706Z,21.50
2022-09-05T21:30:30.619Z,21.42
2022-09-05T21:32:38.401Z,21.41
2022-09-05T21:34:48.654Z,21.40
2022-09-05T21:37:07.500Z,21.37
2022-09-05T21:39:09.569Z,21.34
2022-09-05T21:41:15.819Z,21.31
2022-09-05T21:47:34.035Z,21.31
2022-09-05T21:47:40.213Z,21.22
2022-09-05T21:48:03.553Z,21.18
2022-09-05T21:50:05.511Z,21.19
2022-09-05T21:52:08.229Z,21.16
2022-09-05T21:58:35.522Z,21.16
2022-09-05T21:59:18.801Z,21.16
2022-09-05T21:59:18.933Z,21.13
2022-09-05T22:01:51.002Z,21.07
2022-09-05T22:03:48.728Z,21.01
2022-09-05T22:05:52.243Z,21.04
2022-09-05T22:07:55.676Z,21.04
2022-09-05T22:09:57.814Z,21.01
2022-09-05T22:11:59.912Z,21.01
2022-09-05T22:14:01.460Z,20.97
2022-09-05T22:16:07.966Z,20.97
2022-09-05T22:18:17.412Z,20.94
2022-09-05T22:20:28.979Z,20.91
2022-09-05T22:22:30.723Z,20.92
2022-09-05T22:24:33.955Z,20.83
2022-09-05T22:27:07.458Z,20.81
2022-09-05T22:29:06.388Z,20.79
2022-09-05T22:31:08.703Z,20.78
2022-09-05T22:33:12.056Z,20.73
2022-09-05T22:35:17.857Z,20.75
2022-09-05T22:37:30.264Z,20.70
2022-09-05T22:39:37.368Z,20.70
2022-09-05T22:41:39.619Z,20.74
2022-09-05T22:43:41.145Z,20.73
2022-09-05T22:45:42.809Z,20.69
2022-09-05T22:47:44.290Z,20.71
2022-09-05T22:49:45.793Z,20.70
2022-09-05T22:51:47.292Z,20.65
2022-09-05T22:53:48.844Z,20.67
2022-09-05T22:56:02.112Z,20.68
2022-09-05T22:58:05.128Z,20.68
2022-09-05T23:00:08.277Z,20.68
2022-09-05T23:02:09.769Z,20.65
2022-09-05T23:04:11.321Z,20.62
2022-09-05T23:06:13.389Z,20.65
2022-09-05T23:08:14.862Z,20.64
2022-09-05T23:10:16.869Z,20.64
2022-09-05T23:12:18.418Z,20.64
2022-09-05T23:14:19.924Z,20.61
2022-09-05T23:16:21.667Z,20.56
2022-09-05T23:18:23.232Z,20.54
2022-09-05T23:20:27.369Z,20.48
2022-09-05T23:22:28.844Z,20.48
2022-09-05T23:24:30.441Z,20.49
2022-09-05T23:26:31.955Z,20.44
2022-09-05T23:28:33.699Z,20.43
2022-09-05T23:30:36.561Z,20.38
2022-09-05T23:32:44.091Z,20.37
2022-09-05T23:34:45.601Z,20.36
2022-09-05T23:36:47.105Z,20.33
2022-09-05T23:38:48.599Z,20.31
2022-09-05T23:40:50.093Z,20.31
2022-09-05T23:42:56.434Z,20.26
2022-09-05T23:44:57.907Z,20.27
2022-09-05T23:46:59.398Z,20.24
2022-09-05T23:49:00.901Z,20.22
2022-09-05T23:51:10.455Z,20.20
2022-09-05T23:53:11.957Z,20.20
2022-09-05T23:55:16.471Z,20.20
2022-09-05T23:57:24.321Z,20.19
2022-09-05T23:59:25.831Z,20.20
